Flight Track Log - Related Links

Times and Time Zones

All times are in EDT time to prevent confusion due to time zone crossing. See the SWA718 flight status page for this flight to view local times or setup timezone preferences in your user account.

Time Position Orientation Groundspeed Altitude Reporting Facility
EDT Latitude Longitude Course Direction KTS MPH feet Rate Location/Type
Mon 08:18:46 PM 28.4667 -81.3000 360° North 179 206 2,100  Level Orlando TRACON
Mon 08:19:46 PM 28.5333 -81.3167 348° North 214 246 4,500 2,500 Climbing Orlando TRACON
Mon 08:20:46 PM 28.5833 -81.3667 319° Northwest 272 313 7,100 1,667 Climbing Orlando TRACON
Mon 08:21:52 PM 28.5667 -81.4500 257° West 278 320 8,000 1,373 Climbing Orlando TRACON
Mon 08:23:32 PM 28.5208 -81.5789 248° West 273 314 10,900 2,363 Climbing Jacksonville Center
Mon 08:24:32 PM 28.4906 -81.6619 247° West 273 314 14,300 3,300 Climbing Jacksonville Center
Mon 08:25:32 PM 28.4725 -81.7472 256° West 279 321 17,500 3,000 Climbing Jacksonville Center
Mon 08:26:32 PM 28.4858 -81.8439 279° West 284 327 20,300 2,800 Climbing Jacksonville Center
Mon 08:27:32 PM 28.4992 -81.9406 279° West 303 349 23,100 2,200 Climbing Jacksonville Center
Mon 08:28:32 PM 28.5167 -82.0539 280° West 314 361 24,700 1,500 Climbing Jacksonville Center
Mon 08:29:32 PM 28.5881 -82.1336 316° Northwest 338 389 26,100 1,600 Climbing Jacksonville Center
Mon 08:30:32 PM 28.6928 -82.1872 336° Northwest 372 428 27,900 1,700 Climbing Jacksonville Center
Mon 08:31:32 PM 28.7953 -82.2528 331° Northwest 394 453 29,500 1,750 Climbing Jacksonville Center
Mon 08:32:32 PM 28.9019 -82.3186 332° Northwest 412 474 31,400 2,000 Climbing Jacksonville Center
Mon 08:33:32 PM 29.0044 -82.3797 332° Northwest 420 483 33,500 1,950 Climbing Jacksonville Center
Mon 08:34:32 PM 29.1069 -82.4411 332° Northwest 420 483 35,300 1,250 Climbing Jacksonville Center
Mon 08:35:32 PM 29.2094 -82.5025 332° Northwest 415 478 36,000 350 Climbing Jacksonville Center
Mon 08:36:32 PM 29.3119 -82.5664 331° Northwest 415 478 36,000  Level Jacksonville Center
Mon 08:37:32 PM 29.4144 -82.6303 332° Northwest 415 478 36,000 50 Level Jacksonville Center
Mon 08:38:32 PM 29.5086 -82.6897 331° Northwest 424 488 36,100 550 Climbing Jacksonville Center
Mon 08:39:32 PM 29.6131 -82.7517 333° Northwest 429 494 37,100 950 Climbing Jacksonville Center
Mon 08:40:32 PM 29.7175 -82.8183 331° Northwest 429 494 38,000 450 Climbing Jacksonville Center
Mon 08:41:32 PM 29.8197 -82.8806 332° Northwest 423 487 38,000  Level Jacksonville Center
Mon 08:42:32 PM 29.9219 -82.9453 331° Northwest 418 481 38,000  Level Jacksonville Center
Mon 08:43:32 PM 30.0222 -83.0078 332° Northwest 418 481 38,000  Level Jacksonville Center
Mon 08:44:32 PM 30.1244 -83.0678 333° Northwest 413 475 38,000  Level Jacksonville Center
Mon 08:45:32 PM 30.2225 -83.1306 331° Northwest 408 470 38,000  Level Jacksonville Center
Mon 08:46:32 PM 30.3308 -83.1789 339° North 408 470 38,000  Level Jacksonville Center
Mon 08:47:32 PM 30.4394 -83.2178 343° North 413 475 38,000  Level Jacksonville Center
Mon 08:48:32 PM 30.5519 -83.2592 342° North 413 475 38,000  Level Jacksonville Center
Mon 08:49:32 PM 30.6647 -83.2983 343° North 413 475 38,000  Level Jacksonville Center
Mon 08:50:32 PM 30.7753 -83.3400 342° North 413 475 38,000  Level Jacksonville Center
Mon 08:51:32 PM 30.8919 -83.3864 341° North 413 475 38,000  Level Jacksonville Center
Mon 08:52:32 PM 31.0067 -83.4283 343° North 413 475 38,000  Level Jacksonville Center
Mon 08:53:32 PM 31.1214 -83.4725 342° North 413 475 38,000  Level Jacksonville Center
Mon 08:55:05 PM 31.2969 -83.5383 342° North 441 507 38,000  Level Atlanta Center
Mon 08:56:05 PM 31.4119 -83.5814 342° North 441 507 38,000  Level Atlanta Center
Mon 08:57:05 PM 31.5289 -83.6247 342° North 441 507 38,000  Level Atlanta Center
Mon 08:58:05 PM 31.6228 -83.6608 342° North 441 507 38,000  Level Atlanta Center
Mon 08:59:05 PM 31.7419 -83.7019 344° North 441 507 38,000  Level Atlanta Center
Mon 09:00:05 PM 31.8800 -83.7575 341° North 441 507 38,000  Level Atlanta Center
Mon 09:01:05 PM 31.9947 -83.8014 342° North 441 507 38,000  Level Atlanta Center
Mon 09:02:05 PM 32.1097 -83.8453 342° North 435 501 38,000 300 Level Atlanta Center
Mon 09:03:05 PM 32.2244 -83.8892 342° North 435 501 38,600 900 Climbing Atlanta Center
Mon 09:04:05 PM 32.3436 -83.9283 344° North 435 501 39,800 700 Climbing Atlanta Center
Mon 09:05:05 PM 32.4583 -83.9600 347° North 435 501 40,000 100 Climbing Atlanta Center
Mon 09:06:05 PM 32.5731 -83.9894 348° North 430 495 40,000  Level Atlanta Center
Mon 09:07:05 PM 32.6900 -84.0217 347° North 430 495 40,000  Level Atlanta Center
Mon 09:08:05 PM 32.8047 -84.0536 347° North 430 495 40,000  Level Atlanta Center
Mon 09:09:05 PM 32.9197 -84.0833 348° North 430 495 40,000  Level Atlanta Center
Mon 09:10:05 PM 33.0344 -84.1181 346° North 425 489 40,000  Level Atlanta Center
Mon 09:11:05 PM 33.1367 -84.1456 347° North 419 482 40,000  Level Atlanta Center
Mon 09:12:05 PM 33.2494 -84.1731 348° North 413 475 40,000  Level Atlanta Center
Mon 09:13:05 PM 33.3619 -84.2031 347° North 413 475 40,000  Level Atlanta Center
Mon 09:14:05 PM 33.4747 -84.2356 346° North 418 481 40,000  Level Atlanta Center
Mon 09:15:05 PM 33.6019 -84.2708 347° North 418 481 40,000  Level Atlanta Center
Mon 09:16:05 PM 33.7167 -84.3036 347° North 418 481 40,000  Level Atlanta Center
Mon 09:17:05 PM 33.8336 -84.3339 348° North 418 481 40,000  Level Atlanta Center
Mon 09:18:05 PM 33.9503 -84.3669 347° North 423 487 40,000  Level Atlanta Center
Mon 09:19:05 PM 34.0672 -84.3975 348° North 423 487 40,000  Level Atlanta Center
Mon 09:20:05 PM 34.1778 -84.4256 348° North 441 507 40,000  Level Atlanta Center
Mon 09:21:05 PM 34.2967 -84.4586 347° North 441 507 40,000  Level Atlanta Center
Mon 09:22:05 PM 34.4133 -84.4944 346° North 436 502 40,000  Level Atlanta Center
Mon 09:23:05 PM 34.5281 -84.5278 347° North 431 496 40,000  Level Atlanta Center
Mon 09:24:05 PM 34.6572 -84.5614 348° North 431 496 40,000  Level Atlanta Center
Mon 09:25:05 PM 34.7594 -84.5925 346° North 416 479 40,000  Level Atlanta Center
Mon 09:26:05 PM 34.8781 -84.6261 347° North 416 479 40,000  Level Atlanta Center
Mon 09:27:05 PM 34.9928 -84.6600 346° North 421 484 40,000  Level Atlanta Center
Mon 09:28:05 PM 35.1094 -84.6914 348° North 421 484 40,000  Level Atlanta Center
Mon 09:29:05 PM 35.2239 -84.7253 346° North 421 484 40,000  Level Atlanta Center
Mon 09:30:05 PM 35.3428 -84.7594 347° North 426 490 40,000  Level Atlanta Center
Mon 09:31:05 PM 35.4614 -84.7908 348° North 431 496 40,000  Level Atlanta Center
Mon 09:32:05 PM 35.5781 -84.8253 346° North 431 496 40,000  Level Atlanta Center
Mon 09:34:09 PM 35.8250 -84.8972 347° North 446 513 40,000  Level Indianapolis Center
Mon 09:35:10 PM 35.9478 -84.9317 347° North 448 516 40,000  Level Indianapolis Center
Mon 09:36:11 PM 36.0764 -84.9700 346° North 445 512 40,000  Level Indianapolis Center
Mon 09:37:12 PM 36.1969 -85.0053 347° North 444 511 40,000  Level Indianapolis Center
Mon 09:38:14 PM 36.3183 -85.0400 347° North 447 514 40,000  Level Indianapolis Center
Mon 09:39:15 PM 36.4394 -85.0756 347° North 448 516 40,000  Level Indianapolis Center
Mon 09:40:16 PM 36.5606 -85.1117 347° North 448 516 40,000  Level Indianapolis Center
Mon 09:41:17 PM 36.7069 -85.1539 347° North 450 518 40,000  Level Indianapolis Center
Mon 09:42:19 PM 36.8272 -85.1914 346° North 448 516 40,000  Level Indianapolis Center
Mon 09:43:20 PM 36.9481 -85.2272 347° North 446 513 40,000  Level Indianapolis Center
Mon 09:44:21 PM 37.0644 -85.2622 347° North 445 512 40,000  Level Indianapolis Center
Mon 09:45:22 PM 37.1844 -85.2975 347° North 444 511 40,000  Level Indianapolis Center
Mon 09:46:24 PM 37.3033 -85.3333 347° North 440 506 40,000  Level Indianapolis Center
Mon 09:47:25 PM 37.4231 -85.3700 346° North 441 507 40,000  Level Indianapolis Center
Mon 09:48:26 PM 37.5422 -85.3986 349° North 437 503 40,000  Level Indianapolis Center
Mon 09:49:27 PM 37.6856 -85.4292 350° North 444 511 40,000  Level Indianapolis Center
Mon 09:50:28 PM 37.8081 -85.4544 351° North 443 510 40,000  Level Indianapolis Center
Mon 09:51:30 PM 37.9275 -85.4792 351° North 455 524 40,000  Level Indianapolis Center
Mon 09:52:31 PM 38.0497 -85.5058 350° North 448 516 40,000  Level Indianapolis Center
Mon 09:53:32 PM 38.1722 -85.5328 350° North 447 514 40,000  Level Indianapolis Center
Mon 09:54:33 PM 38.2950 -85.5583 351° North 445 512 40,000  Level Indianapolis Center
Mon 09:55:34 PM 38.4178 -85.5844 351° North 447 514 40,000  Level Indianapolis Center
Mon 09:56:35 PM 38.5389 -85.6106 350° North 443 510 40,000  Level Indianapolis Center
Mon 09:57:37 PM 38.6597 -85.6378 350° North 440 506 40,000 -927 Level Indianapolis Center
Mon 09:58:38 PM 38.8025 -85.6681 351° North 435 501 38,100 -1,869 Descending Indianapolis Center
Mon 09:59:39 PM 38.9211 -85.6961 350° North 432 497 36,200 -1,902 Descending Indianapolis Center
Mon 10:01:00 PM 39.0669 -85.7281 350° North  Level FlightAware Approximate
Mon 10:01:41 PM 39.1472 -85.7453 350° North 413 475 32,300  Level Indianapolis Center
Mon 10:02:42 PM 39.2611 -85.7689 351° North 414 476 30,400 -1,131 Descending Indianapolis Center
Mon 10:03:43 PM 39.3781 -85.7961 350° North 423 487 30,000 -197 Descending Indianapolis Center
Mon 10:04:44 PM 39.4903 -85.8231 350° North 416 479 30,000  Level Indianapolis Center
Mon 10:05:45 PM 39.5978 -85.8464 351° North 400 460 30,000  Level Indianapolis Center
Mon 10:06:46 PM 39.7058 -85.8700 350° North 393 452 30,000 -639 Level Indianapolis Center
Mon 10:07:47 PM 39.8156 -85.8956 350° North 394 453 28,700 -1,869 Descending Indianapolis Center
Mon 10:08:48 PM 39.9236 -85.9194 350° North 391 450 26,200 -2,244 Descending Indianapolis Center
Mon 10:09:50 PM 40.0267 -85.9425 350° North 387 445 24,100 -1,073 Descending Indianapolis Center
Mon 10:10:51 PM 40.1344 -85.9661 350° North 389 448 24,000 -233 Descending Indianapolis Center
Mon 10:11:33 PM 40.2117 -85.9858 349° North 393 452 23,700 -750 Descending Chicago Center
Mon 10:12:35 PM 40.3203 -86.0092 351° North 395 455 22,700 -1,073 Descending Chicago Center
Mon 10:13:36 PM 40.4372 -86.0694 339° North 387 445 21,500 -1,024 Descending Chicago Center
Mon 10:14:38 PM 40.5219 -86.1517 324° Northwest 379 436 20,600 -871 Descending Chicago Center
Mon 10:15:40 PM 40.6139 -86.2425 323° Northwest 412 474 19,700 -927 Descending Chicago Center
Mon 10:16:41 PM 40.7067 -86.3350 323° Northwest 418 481 18,700 -976 Descending Chicago Center
Mon 10:17:43 PM 40.7967 -86.4275 322° Northwest 408 470 17,700 -878 Descending Chicago Center
Mon 10:18:44 PM 40.8872 -86.5172 323° Northwest 405 466 16,900 -1,073 Descending Chicago Center
Mon 10:19:46 PM 40.9744 -86.6078 322° Northwest 400 460 15,500 -2,000 Descending Chicago Center
Mon 10:20:47 PM 41.0606 -86.6936 323° Northwest 389 448 12,800 -2,244 Descending Chicago Center
Mon 10:21:49 PM 41.1517 -86.7861 323° Northwest 375 432 10,900 -1,268 Descending Chicago Center
Mon 10:22:50 PM 41.2325 -86.8689 322° Northwest 370 426 10,200 -439 Descending Chicago Center
Mon 10:23:52 PM 41.3103 -86.9472 323° Northwest 358 412 10,000 -390 Descending Chicago Center
Mon 10:24:53 PM 41.3708 -87.0097 322° Northwest 283 326 9,400 -1,122 Descending Chicago Center
Mon 10:25:55 PM 41.4228 -87.1011 307° West 275 316 7,700 -1,345 Descending Chicago Center
Mon 10:26:49 PM 41.4333 -87.2000 278° West 276 318 6,800 -1,000 Descending Chicago TRACON
Mon 10:27:43 PM 41.4500 -87.2833 285° West 271 312 5,900 -952 Descending Chicago TRACON
Mon 10:28:55 PM 41.4667 -87.4000 281° West 269 310 4,800 -864 Descending Chicago TRACON
Mon 10:29:55 PM 41.4833 -87.4833 285° West 264 304 4,000 -421 Descending Chicago TRACON
Mon 10:30:49 PM 41.5000 -87.5833 283° West 263 303 4,000  Level Chicago TRACON
Mon 10:31:49 PM 41.5500 -87.6500 315° West 276 318 4,000 -238 Level Chicago TRACON
Mon 10:32:55 PM 41.6167 -87.7333 317° Northwest 247 284 3,500 -750 Descending Chicago TRACON
Mon 10:33:49 PM 41.6500 -87.7833 312° West 226 260 2,500 -835 Descending Chicago TRACON
Mon 10:34:50 PM 41.7000 -87.8167 334° Northwest 210 242 1,900 -298 Descending Chicago TRACON
Mon 10:35:50 PM 41.7500 -87.8333 346° North 185 213 1,900 -53 Level Chicago TRACON
Mon 10:36:44 PM 41.8000 -87.8167 14° North 159 183 1,800 -450 Descending Chicago TRACON
Mon 10:37:50 PM 41.8000 -87.7833 90° East 126 145 1,000 -727 Descending Chicago TRACON

Login

Don't have an account? Register now (free) for customized features, flight alerts, and more!